createdAt,value
2017-10-15T00:00:48.398Z,15.15
2017-10-15T00:03:15.799Z,15.11
2017-10-15T00:05:43.234Z,15.07
2017-10-15T00:08:11.033Z,15.09
2017-10-15T00:10:38.437Z,15.08
2017-10-15T00:13:05.885Z,15.11
2017-10-15T00:15:33.286Z,15.16
2017-10-15T00:18:00.742Z,15.17
2017-10-15T00:20:28.185Z,15.17
2017-10-15T00:22:55.570Z,15.17
2017-10-15T00:25:22.969Z,15.15
2017-10-15T00:27:50.412Z,15.19
2017-10-15T00:30:17.818Z,15.15
2017-10-15T00:32:45.252Z,15.12
2017-10-15T00:35:12.661Z,15.06
2017-10-15T00:37:40.092Z,15.01
2017-10-15T00:40:07.505Z,14.98
2017-10-15T00:42:34.908Z,14.97
2017-10-15T00:45:02.354Z,14.96
2017-10-15T00:47:29.758Z,14.93
2017-10-15T00:49:57.180Z,14.90
2017-10-15T00:52:24.586Z,14.89
2017-10-15T00:54:52.064Z,14.86
2017-10-15T00:57:19.478Z,14.84
2017-10-15T00:59:46.885Z,14.83
2017-10-15T01:02:14.277Z,14.81
2017-10-15T01:04:41.686Z,14.82
2017-10-15T01:07:09.134Z,14.83
2017-10-15T01:09:36.522Z,14.85
2017-10-15T01:12:03.949Z,14.84
2017-10-15T01:14:31.362Z,14.81
2017-10-15T01:16:58.794Z,14.80
2017-10-15T01:19:26.219Z,14.79
2017-10-15T01:21:53.637Z,14.78
2017-10-15T01:24:21.034Z,14.75
2017-10-15T01:26:48.454Z,14.71
2017-10-15T01:29:15.902Z,14.67
2017-10-15T01:31:43.269Z,14.62
2017-10-15T01:34:10.690Z,14.61
2017-10-15T01:36:38.102Z,14.58
2017-10-15T01:39:05.498Z,14.54
2017-10-15T01:41:32.954Z,14.54
2017-10-15T01:44:00.330Z,14.54
2017-10-15T01:46:27.769Z,14.56
2017-10-15T01:48:55.207Z,14.57
2017-10-15T01:51:22.606Z,14.63
2017-10-15T01:53:50.025Z,14.64
2017-10-15T01:56:17.486Z,14.67
2017-10-15T01:58:44.917Z,14.67
2017-10-15T02:01:12.348Z,14.65
2017-10-15T02:03:39.752Z,14.61
2017-10-15T02:06:07.168Z,14.58
2017-10-15T02:08:34.554Z,14.57
2017-10-15T02:11:01.983Z,14.66
2017-10-15T02:13:29.358Z,14.65
2017-10-15T02:15:56.769Z,14.58
2017-10-15T02:18:24.205Z,14.54
2017-10-15T02:20:51.611Z,14.49
2017-10-15T02:23:19.001Z,14.49
2017-10-15T02:25:46.443Z,14.50
2017-10-15T02:28:13.838Z,14.52
2017-10-15T02:30:41.248Z,14.53
2017-10-15T02:33:08.650Z,14.58
2017-10-15T02:35:36.061Z,14.59
2017-10-15T02:38:03.498Z,14.64
2017-10-15T02:40:30.912Z,14.61
2017-10-15T02:42:58.324Z,14.60
2017-10-15T02:45:25.775Z,14.65
2017-10-15T02:47:53.202Z,14.71
2017-10-15T02:50:21.138Z,14.72
2017-10-15T02:52:48.572Z,14.67
2017-10-15T02:55:15.994Z,14.67
2017-10-15T02:57:43.417Z,14.66
2017-10-15T03:00:10.825Z,14.66
2017-10-15T03:02:38.247Z,14.65
2017-10-15T03:05:05.691Z,14.57
2017-10-15T03:07:33.079Z,14.53
2017-10-15T03:10:00.556Z,14.53
2017-10-15T03:12:27.991Z,14.48
2017-10-15T03:14:55.385Z,14.45
2017-10-15T03:17:22.801Z,14.47
2017-10-15T03:19:50.219Z,14.42
2017-10-15T03:22:17.625Z,14.47
2017-10-15T03:24:45.390Z,14.42
2017-10-15T03:27:12.786Z,14.42
2017-10-15T03:29:40.197Z,14.36
2017-10-15T03:32:07.757Z,14.34
2017-10-15T03:34:35.146Z,14.34
2017-10-15T03:37:02.602Z,14.34
2017-10-15T03:39:30.051Z,14.31
2017-10-15T03:41:57.463Z,14.30
2017-10-15T03:44:24.858Z,14.28
2017-10-15T03:46:52.286Z,14.25
2017-10-15T03:49:19.691Z,14.20
2017-10-15T03:51:47.085Z,14.25
2017-10-15T03:54:14.521Z,14.18
2017-10-15T03:56:41.913Z,14.17
2017-10-15T03:59:09.317Z,14.17
2017-10-15T04:01:36.726Z,14.12
2017-10-15T04:04:04.171Z,14.07
2017-10-15T04:06:31.594Z,14.05
2017-10-15T04:08:59.018Z,14.04
2017-10-15T04:11:26.430Z,14.05
2017-10-15T04:13:53.818Z,14.00
2017-10-15T04:16:21.244Z,13.96
2017-10-15T04:18:48.659Z,13.93
2017-10-15T04:21:16.075Z,13.95
2017-10-15T04:23:43.497Z,13.92
2017-10-15T04:26:10.943Z,13.89
2017-10-15T04:28:38.650Z,13.89
2017-10-15T04:31:06.072Z,13.87
2017-10-15T04:33:33.470Z,13.84
2017-10-15T04:36:00.899Z,13.83
2017-10-15T04:38:28.310Z,13.82
2017-10-15T04:40:55.718Z,13.81
2017-10-15T04:43:23.146Z,13.80
2017-10-15T04:45:50.562Z,13.83
2017-10-15T04:48:17.986Z,13.85
2017-10-15T04:50:45.377Z,13.84
2017-10-15T04:53:12.802Z,13.84
2017-10-15T04:55:40.482Z,13.88
2017-10-15T04:58:07.910Z,13.90
2017-10-15T05:00:35.352Z,13.88
2017-10-15T05:03:02.738Z,13.89
2017-10-15T05:05:30.158Z,13.89
2017-10-15T05:08:02.161Z,13.84
2017-10-15T05:10:29.592Z,13.78
2017-10-15T05:12:56.985Z,13.77
2017-10-15T05:15:24.437Z,13.75
2017-10-15T05:17:51.885Z,13.75
2017-10-15T05:20:19.266Z,13.75
2017-10-15T05:22:46.691Z,13.74
2017-10-15T05:25:14.117Z,13.73
2017-10-15T05:27:41.521Z,13.73
2017-10-15T05:30:08.927Z,13.71
2017-10-15T05:32:36.353Z,13.70
2017-10-15T05:35:03.793Z,13.68
2017-10-15T05:37:31.219Z,13.75
2017-10-15T05:39:58.734Z,13.73
2017-10-15T05:42:26.146Z,13.73
2017-10-15T05:44:53.557Z,13.72
2017-10-15T05:47:20.950Z,13.71
2017-10-15T05:49:48.343Z,13.70
2017-10-15T05:52:15.822Z,13.65
2017-10-15T05:54:43.209Z,13.69
2017-10-15T05:57:10.621Z,13.66
2017-10-15T05:59:38.054Z,13.67
2017-10-15T06:02:05.446Z,13.67
2017-10-15T06:04:32.853Z,13.67
2017-10-15T06:07:00.263Z,13.67
2017-10-15T06:09:27.665Z,13.67
2017-10-15T06:11:55.081Z,13.73
2017-10-15T06:14:22.546Z,13.73
2017-10-15T06:16:49.925Z,13.77
2017-10-15T06:19:17.314Z,13.79
2017-10-15T06:21:44.746Z,13.78
2017-10-15T06:24:13.344Z,13.84
2017-10-15T06:26:40.787Z,13.82
2017-10-15T06:29:08.254Z,13.83
2017-10-15T06:31:35.680Z,13.86
2017-10-15T06:34:03.081Z,13.87
2017-10-15T06:36:30.498Z,13.89
2017-10-15T06:38:57.898Z,13.89
2017-10-15T06:41:25.290Z,13.90
2017-10-15T06:43:52.694Z,13.91
2017-10-15T06:46:23.221Z,13.94
2017-10-15T06:48:50.607Z,13.95
2017-10-15T06:51:18.017Z,13.99
2017-10-15T06:53:45.421Z,13.99
2017-10-15T06:56:12.823Z,14.00
2017-10-15T06:58:40.229Z,14.00
2017-10-15T07:01:07.617Z,14.06
2017-10-15T07:03:35.010Z,14.07
2017-10-15T07:06:02.487Z,14.06
2017-10-15T07:08:29.878Z,14.08
2017-10-15T07:10:57.278Z,14.12
2017-10-15T07:13:24.700Z,14.15
2017-10-15T07:15:52.085Z,14.17
2017-10-15T07:18:19.481Z,14.23
2017-10-15T07:20:46.897Z,14.27
2017-10-15T07:23:14.295Z,14.32
2017-10-15T07:25:41.686Z,14.39
2017-10-15T07:28:09.095Z,14.42
2017-10-15T07:30:36.489Z,14.47
2017-10-15T07:33:03.900Z,14.47
2017-10-15T07:35:31.309Z,14.51
2017-10-15T07:37:58.694Z,14.60
2017-10-15T07:40:26.087Z,14.61
2017-10-15T07:42:54.438Z,14.67
2017-10-15T07:45:21.830Z,14.73
2017-10-15T07:47:49.230Z,14.78
2017-10-15T07:50:16.640Z,14.83
2017-10-15T07:52:44.058Z,14.95
2017-10-15T07:55:11.517Z,15.06
2017-10-15T07:57:38.958Z,15.14
2017-10-15T08:00:06.451Z,15.23
2017-10-15T08:02:33.866Z,15.32
2017-10-15T08:05:01.291Z,15.43
2017-10-15T08:07:28.719Z,15.50
2017-10-15T08:09:56.114Z,15.64
2017-10-15T08:12:23.523Z,15.72
2017-10-15T08:14:50.910Z,15.84
2017-10-15T08:17:18.340Z,15.94
2017-10-15T08:19:45.786Z,16.04
2017-10-15T08:22:13.205Z,16.22
2017-10-15T08:24:40.646Z,16.37
2017-10-15T08:27:08.157Z,16.56
2017-10-15T08:29:35.635Z,16.70
2017-10-15T08:32:03.074Z,16.97
2017-10-15T08:34:30.504Z,17.16
2017-10-15T08:36:57.959Z,17.36
2017-10-15T08:39:25.334Z,17.51
2017-10-15T08:41:52.746Z,17.67
2017-10-15T08:44:20.222Z,17.86
2017-10-15T08:46:48.533Z,18.05
2017-10-15T08:49:16.521Z,18.22
2017-10-15T08:51:43.930Z,18.38
2017-10-15T08:54:12.252Z,18.54
2017-10-15T08:56:40.558Z,18.73
2017-10-15T08:59:08.178Z,18.92
2017-10-15T09:01:36.339Z,19.15
2017-10-15T09:04:03.830Z,19.36
2017-10-15T09:06:31.990Z,19.57
2017-10-15T09:09:00.214Z,19.84
2017-10-15T09:11:27.710Z,20.13
2017-10-15T09:13:55.275Z,20.44
2017-10-15T09:16:23.424Z,20.85
2017-10-15T09:18:51.643Z,21.21
2017-10-15T09:21:19.030Z,21.47
2017-10-15T09:23:46.457Z,21.66
2017-10-15T09:26:14.775Z,21.77
2017-10-15T09:28:43.269Z,21.94
2017-10-15T09:31:11.303Z,22.03
2017-10-15T09:33:38.714Z,22.13
2017-10-15T09:36:06.114Z,22.31
2017-10-15T09:38:33.539Z,22.43
2017-10-15T09:41:00.929Z,22.55
2017-10-15T09:43:28.356Z,22.78
2017-10-15T09:45:55.773Z,23.09
2017-10-15T09:48:23.210Z,23.37
2017-10-15T09:50:50.646Z,23.46
2017-10-15T09:53:18.058Z,23.65
2017-10-15T09:55:45.465Z,23.77
2017-10-15T09:58:12.863Z,23.94
2017-10-15T10:00:40.305Z,24.15
2017-10-15T10:03:07.807Z,24.39
2017-10-15T10:05:35.218Z,24.73
2017-10-15T10:08:02.617Z,24.89
2017-10-15T10:10:30.052Z,25.08
2017-10-15T10:12:57.466Z,25.00
2017-10-15T10:15:24.863Z,25.26
2017-10-15T10:17:52.275Z,25.27
2017-10-15T10:20:19.670Z,25.56
2017-10-15T10:22:47.106Z,25.65
2017-10-15T10:25:14.586Z,25.84
2017-10-15T10:27:41.977Z,26.05
2017-10-15T10:30:09.371Z,26.34
2017-10-15T10:32:38.742Z,26.50
2017-10-15T10:35:06.165Z,26.54
2017-10-15T10:37:33.562Z,26.82
2017-10-15T10:40:00.974Z,26.82
2017-10-15T10:42:28.382Z,26.87
2017-10-15T10:44:55.824Z,26.84
2017-10-15T10:47:23.212Z,26.78
2017-10-15T10:49:50.609Z,26.88
2017-10-15T10:52:18.023Z,27.09
2017-10-15T10:54:45.734Z,27.27
2017-10-15T10:57:13.127Z,26.92
2017-10-15T10:59:40.510Z,27.09
2017-10-15T11:02:07.955Z,27.17
2017-10-15T11:04:50.500Z,27.16
2017-10-15T11:07:17.909Z,27.24
2017-10-15T11:09:45.369Z,27.27
2017-10-15T11:12:12.770Z,27.33
2017-10-15T11:14:40.246Z,27.30
2017-10-15T11:17:07.663Z,27.17
2017-10-15T11:19:35.098Z,27.06
2017-10-15T11:22:02.521Z,27.07
2017-10-15T11:24:29.955Z,27.08
2017-10-15T11:26:57.398Z,27.08
2017-10-15T11:29:24.855Z,27.01
2017-10-15T11:31:52.281Z,26.88
2017-10-15T11:34:19.689Z,26.79
2017-10-15T11:36:47.106Z,26.89
2017-10-15T11:39:14.520Z,26.92
2017-10-15T11:41:41.937Z,26.96
2017-10-15T11:44:09.347Z,27.09
2017-10-15T11:46:36.765Z,27.23
2017-10-15T11:49:04.183Z,27.04
2017-10-15T11:51:31.574Z,27.02
2017-10-15T11:53:58.979Z,27.06
2017-10-15T11:56:26.370Z,27.06
2017-10-15T11:58:53.821Z,27.20
2017-10-15T12:01:21.222Z,27.24
2017-10-15T12:03:48.641Z,27.24
2017-10-15T12:06:16.049Z,27.36
2017-10-15T12:08:43.486Z,27.26
2017-10-15T12:11:10.885Z,27.09
2017-10-15T12:13:38.301Z,27.14
2017-10-15T12:16:05.740Z,27.12
2017-10-15T12:18:33.166Z,27.06
2017-10-15T12:21:00.591Z,26.91
2017-10-15T12:23:28.011Z,27.16
2017-10-15T12:25:55.419Z,27.27
2017-10-15T12:28:22.827Z,27.38
2017-10-15T12:30:50.222Z,27.33
2017-10-15T12:33:17.610Z,27.33
2017-10-15T12:35:45.019Z,27.43
2017-10-15T12:38:12.410Z,27.51
2017-10-15T12:40:39.802Z,27.68
2017-10-15T12:43:07.218Z,27.65
2017-10-15T12:45:34.606Z,27.37
2017-10-15T12:48:02.001Z,27.64
2017-10-15T12:50:29.405Z,27.74
2017-10-15T12:52:56.789Z,27.80
2017-10-15T12:55:24.182Z,27.93
2017-10-15T12:57:51.605Z,27.88
2017-10-15T13:00:18.993Z,27.94
2017-10-15T13:02:46.391Z,27.76
2017-10-15T13:05:13.802Z,27.69
2017-10-15T13:07:41.198Z,27.74
2017-10-15T13:10:08.590Z,27.79
2017-10-15T13:12:36.913Z,27.69
2017-10-15T13:15:04.826Z,27.71
2017-10-15T13:17:32.214Z,27.67
2017-10-15T13:19:59.652Z,27.66
2017-10-15T13:22:27.113Z,27.54
2017-10-15T13:24:54.506Z,27.55
2017-10-15T13:27:21.928Z,27.38
2017-10-15T13:29:49.314Z,27.41
2017-10-15T13:32:16.706Z,27.39
2017-10-15T13:34:44.127Z,27.44
2017-10-15T13:37:11.996Z,27.38
2017-10-15T13:39:41.014Z,27.28
2017-10-15T13:42:08.430Z,27.23
2017-10-15T13:44:36.938Z,27.09
2017-10-15T13:47:04.322Z,26.96
2017-10-15T13:49:31.737Z,26.93
2017-10-15T13:52:00.142Z,26.94
2017-10-15T13:54:27.541Z,26.92
2017-10-15T13:56:54.961Z,26.84
2017-10-15T13:59:22.355Z,26.88
2017-10-15T14:01:49.775Z,26.86
2017-10-15T14:04:17.170Z,26.82
2017-10-15T14:06:44.561Z,26.76
2017-10-15T14:09:11.954Z,26.70
2017-10-15T14:11:39.453Z,26.68
2017-10-15T14:14:06.826Z,26.58
2017-10-15T14:16:34.227Z,26.42
2017-10-15T14:19:01.643Z,26.40
2017-10-15T14:21:29.034Z,26.24
2017-10-15T14:23:56.434Z,26.16
2017-10-15T14:26:23.844Z,26.07
2017-10-15T14:28:51.238Z,25.92
2017-10-15T14:31:18.634Z,25.79
2017-10-15T14:33:46.054Z,25.66
2017-10-15T14:36:13.450Z,25.66
2017-10-15T14:38:40.846Z,25.57
2017-10-15T14:41:08.408Z,25.57
2017-10-15T14:43:35.798Z,25.47
2017-10-15T14:46:03.194Z,25.41
2017-10-15T14:48:30.598Z,25.36
2017-10-15T14:50:58.002Z,25.31
2017-10-15T14:53:25.398Z,25.26
2017-10-15T14:55:52.815Z,25.18
2017-10-15T14:58:20.233Z,25.14
2017-10-15T15:00:47.607Z,25.05
2017-10-15T15:03:15.458Z,24.93
2017-10-15T15:05:42.850Z,24.86
2017-10-15T15:08:10.279Z,24.82
2017-10-15T15:10:37.686Z,24.79
2017-10-15T15:13:05.084Z,24.76
2017-10-15T15:15:32.521Z,24.75
2017-10-15T15:17:59.937Z,24.68
2017-10-15T15:20:27.334Z,24.61
2017-10-15T15:22:54.742Z,24.59
2017-10-15T15:25:22.173Z,24.47
2017-10-15T15:27:49.570Z,24.36
2017-10-15T15:30:16.994Z,24.30
2017-10-15T15:32:44.422Z,24.22
2017-10-15T15:35:12.706Z,24.15
2017-10-15T15:37:40.128Z,24.05
2017-10-15T15:40:07.634Z,23.99
2017-10-15T15:42:35.033Z,23.92
2017-10-15T15:45:02.415Z,23.83
2017-10-15T15:47:29.839Z,23.70
2017-10-15T15:49:57.254Z,23.61
2017-10-15T15:52:24.659Z,23.57
2017-10-15T15:54:52.086Z,23.39
2017-10-15T15:57:19.550Z,23.37
2017-10-15T15:59:46.959Z,23.26
2017-10-15T16:02:14.368Z,23.16
2017-10-15T16:04:41.798Z,23.07
2017-10-15T16:07:09.522Z,22.95
2017-10-15T16:09:36.974Z,22.85
2017-10-15T16:12:05.171Z,22.73
2017-10-15T16:14:41.061Z,22.62
2017-10-15T16:17:08.905Z,22.48
2017-10-15T16:19:38.284Z,22.33
2017-10-15T16:22:06.830Z,22.18
2017-10-15T16:27:37.066Z,21.87
2017-10-15T16:30:04.489Z,21.80
2017-10-15T16:32:32.814Z,21.74
2017-10-15T16:35:02.964Z,21.64
2017-10-15T16:37:31.001Z,21.52
2017-10-15T16:39:58.408Z,21.45
2017-10-15T16:42:25.839Z,21.32
2017-10-15T16:44:53.255Z,21.25
2017-10-15T16:47:20.634Z,21.17
2017-10-15T16:49:48.055Z,21.13
2017-10-15T16:52:15.487Z,21.07
2017-10-15T16:54:42.879Z,20.98
2017-10-15T16:57:10.285Z,20.93
2017-10-15T16:59:37.710Z,20.85
2017-10-15T17:02:05.151Z,20.79
2017-10-15T17:04:32.611Z,20.71
2017-10-15T17:07:00.042Z,20.60
2017-10-15T17:09:27.777Z,20.54
2017-10-15T17:11:55.511Z,20.45
2017-10-15T17:14:22.894Z,20.37
2017-10-15T17:16:50.336Z,20.29
2017-10-15T17:19:17.758Z,20.24
2017-10-15T17:21:45.159Z,20.20
2017-10-15T17:24:12.580Z,20.09
2017-10-15T17:26:39.981Z,20.04
2017-10-15T17:29:07.401Z,20.04
2017-10-15T17:31:34.793Z,19.96
2017-10-15T17:34:02.218Z,19.90
2017-10-15T17:36:29.638Z,19.89
2017-10-15T17:38:57.138Z,19.83
2017-10-15T17:41:24.627Z,19.76
2017-10-15T17:43:52.023Z,19.83
2017-10-15T17:46:19.418Z,19.83
2017-10-15T17:48:46.863Z,19.81
2017-10-15T17:51:14.287Z,19.75
2017-10-15T17:53:41.695Z,19.69
2017-10-15T17:56:09.126Z,19.65
2017-10-15T17:58:36.526Z,19.67
2017-10-15T18:01:03.943Z,19.63
2017-10-15T18:03:31.352Z,19.61
2017-10-15T18:05:58.793Z,19.56
2017-10-15T18:08:26.198Z,19.53
2017-10-15T18:10:53.644Z,19.53
2017-10-15T18:13:21.042Z,19.53
2017-10-15T18:15:48.457Z,19.53
2017-10-15T18:18:15.908Z,19.45
2017-10-15T18:20:43.321Z,19.41
2017-10-15T18:23:10.765Z,19.28
2017-10-15T18:25:38.185Z,19.23
2017-10-15T18:28:05.606Z,19.17
2017-10-15T18:30:33.004Z,19.13
2017-10-15T18:33:01.410Z,19.09
2017-10-15T18:35:28.807Z,19.04
2017-10-15T18:37:56.242Z,18.99
2017-10-15T18:40:23.666Z,19.03
2017-10-15T18:42:51.082Z,19.02
2017-10-15T18:45:18.474Z,18.96
2017-10-15T18:47:45.922Z,18.92
2017-10-15T18:50:13.325Z,18.89
2017-10-15T18:52:40.750Z,18.81
2017-10-15T18:55:08.193Z,18.77
2017-10-15T18:57:35.614Z,18.67
2017-10-15T19:00:03.046Z,18.65
2017-10-15T19:02:30.495Z,18.55
2017-10-15T19:04:57.886Z,18.50
2017-10-15T19:07:25.320Z,18.51
2017-10-15T19:09:52.738Z,18.45
2017-10-15T19:12:20.179Z,18.38
2017-10-15T19:14:47.560Z,18.37
2017-10-15T19:17:15.021Z,18.34
2017-10-15T19:19:42.419Z,18.30
2017-10-15T19:22:09.806Z,18.27
2017-10-15T19:24:37.242Z,18.25
2017-10-15T19:27:04.657Z,18.20
2017-10-15T19:29:32.057Z,18.19
2017-10-15T19:31:59.599Z,18.14
2017-10-15T19:34:26.991Z,18.09
2017-10-15T19:36:54.383Z,18.07
2017-10-15T19:39:21.821Z,18.08
2017-10-15T19:41:49.198Z,18.04
2017-10-15T19:44:16.590Z,18.08
2017-10-15T19:46:43.998Z,18.01
2017-10-15T19:49:11.470Z,17.93
2017-10-15T19:51:38.866Z,17.88
2017-10-15T19:54:06.290Z,17.88
2017-10-15T19:56:33.670Z,17.86
2017-10-15T19:59:01.062Z,17.82
2017-10-15T20:01:28.481Z,17.80
2017-10-15T20:03:56.201Z,17.73
2017-10-15T20:06:23.595Z,17.69
2017-10-15T20:08:51.012Z,17.66
2017-10-15T20:11:18.385Z,17.58
2017-10-15T20:13:45.777Z,17.57
2017-10-15T20:16:13.201Z,17.55
2017-10-15T20:18:40.589Z,17.48
2017-10-15T20:21:07.989Z,17.46
2017-10-15T20:23:35.413Z,17.42
2017-10-15T20:26:03.214Z,17.43
2017-10-15T20:28:30.605Z,17.43
2017-10-15T20:30:58.014Z,17.41
2017-10-15T20:33:25.400Z,17.42
2017-10-15T20:35:52.789Z,17.40
2017-10-15T20:38:20.195Z,17.40
2017-10-15T20:40:47.583Z,17.41
2017-10-15T20:43:14.973Z,17.38
2017-10-15T20:45:42.377Z,17.38
2017-10-15T20:48:09.773Z,17.38
2017-10-15T20:50:37.160Z,17.34
2017-10-15T20:53:04.562Z,17.32
2017-10-15T20:55:31.953Z,17.34
2017-10-15T20:57:59.342Z,17.34
2017-10-15T21:00:26.769Z,17.36
2017-10-15T21:02:54.158Z,17.38
2017-10-15T21:05:21.554Z,17.39
2017-10-15T21:07:48.959Z,17.34
2017-10-15T21:10:16.346Z,17.32
2017-10-15T21:12:43.739Z,17.29
2017-10-15T21:15:11.243Z,17.27
2017-10-15T21:17:38.626Z,17.32
2017-10-15T21:20:06.021Z,17.32
2017-10-15T21:22:33.453Z,17.31
2017-10-15T21:25:00.846Z,17.31
2017-10-15T21:27:28.233Z,17.29
2017-10-15T21:29:55.641Z,17.28
2017-10-15T21:32:23.033Z,17.22
2017-10-15T21:34:50.422Z,17.22
2017-10-15T21:37:17.925Z,17.23
2017-10-15T21:39:45.365Z,17.28
2017-10-15T21:42:12.737Z,17.29
2017-10-15T21:44:40.239Z,17.26
2017-10-15T21:47:07.630Z,17.23
2017-10-15T21:49:35.026Z,17.16
2017-10-15T21:52:02.442Z,17.18
2017-10-15T21:54:29.838Z,17.11
2017-10-15T21:56:57.226Z,17.05
2017-10-15T21:59:24.637Z,16.99
2017-10-15T22:01:52.031Z,16.93
2017-10-15T22:04:19.421Z,16.91
2017-10-15T22:06:46.847Z,16.91
2017-10-15T22:09:14.239Z,16.86
2017-10-15T22:11:41.630Z,16.85
2017-10-15T22:14:09.051Z,16.82
2017-10-15T22:16:36.449Z,16.81
2017-10-15T22:19:03.839Z,16.78
2017-10-15T22:21:36.931Z,16.73
2017-10-15T22:24:04.318Z,16.71
2017-10-15T22:26:31.706Z,16.67
2017-10-15T22:28:59.115Z,16.61
2017-10-15T22:31:26.505Z,16.61
2017-10-15T22:33:53.908Z,16.60
2017-10-15T22:36:21.334Z,16.55
2017-10-15T22:38:48.725Z,16.47
2017-10-15T22:41:16.114Z,16.44
2017-10-15T22:43:43.539Z,16.44
2017-10-15T22:46:10.926Z,16.38
2017-10-15T22:48:38.318Z,16.37
2017-10-15T22:51:05.718Z,16.32
2017-10-15T22:53:33.109Z,16.29
2017-10-15T22:56:00.506Z,16.26
2017-10-15T22:58:27.921Z,16.30
2017-10-15T23:00:55.315Z,16.26
2017-10-15T23:03:22.713Z,16.24
2017-10-15T23:05:50.106Z,16.26
2017-10-15T23:08:17.502Z,16.25
2017-10-15T23:10:44.894Z,16.23
2017-10-15T23:13:12.299Z,16.20
2017-10-15T23:15:39.690Z,16.18
2017-10-15T23:18:07.081Z,16.16
2017-10-15T23:20:34.502Z,16.16
2017-10-15T23:23:01.907Z,16.12
2017-10-15T23:25:29.302Z,16.10
2017-10-15T23:27:56.725Z,16.08
2017-10-15T23:30:24.110Z,16.07
2017-10-15T23:32:51.497Z,16.06
2017-10-15T23:35:18.914Z,16.06
2017-10-15T23:37:46.302Z,16.03
2017-10-15T23:40:13.698Z,16.04
2017-10-15T23:42:41.107Z,16.00
2017-10-15T23:45:08.518Z,16.03
2017-10-15T23:47:35.905Z,16.00
2017-10-15T23:50:03.311Z,16.00
2017-10-15T23:52:30.705Z,16.04
2017-10-15T23:54:58.098Z,16.03
2017-10-15T23:57:25.497Z,16.00
2017-10-15T23:59:52.896Z,16.00
